Belton, TX (76513)

4:57 AM CST en Marzo 01, 2015 (GMT -0600)
BeltonLakeTx | Change Station
CLOSE
Current Station
Estación meteorológica personal
Location: Belton, TX
Altura: 778 ft
Estaciones meteorológicas cercanas

Alt 778 ft 31.12 °N, 97.53 °W | Updated 13 minutes ago

Nublado
Nublado
34.3 ° F
Sensación térmica 29 ° F
N
6.0
Viento Variable Viento desde NE
Gusts 8.3 mph

Hoy
Alta -- | Baja -- ° F
--% Posibilidad de precipitaciones
Ayer
Alta -- | Baja -- ° F
Precip. -- pul
6:56 AM 6:28 PM
Gibosa creciente, 84% visible
Presión 30.23 pul
Visibilidad 3.0 Millas
Nubes Nublado 300 ft
Vientos helados 29 ° F
Punto de rocío 32 ° F
Humedad 90%
Precipitaciones 0.15 pul
Espesor de la nieve No disponible.
UV 0 de una escala de 12
Polen 5.10 de una escala de 12
Calidad del aire No disponible.
Flu Activity No disponible.
METAR KTPL 011035Z AUTO 36007KT 3SM OVC003 01/M01 A3023 RMK AO1

More Conditions Fewer Conditions

Presión 30.23 pul
Visibilidad 3.0 Millas
Nubes Nublado 300 ft
Vientos helados 29 ° F
Punto de rocío 32 ° F
Humedad 90%
Precipitaciones 0.15 pul
Espesor de la nieve No disponible.
UV 0 de una escala de 12
Polen 5.10 de una escala de 12
Calidad del aire No disponible.
Flu Activity No disponible.
METAR KTPL 011035Z AUTO 36007KT 3SM OVC003 01/M01 A3023 RMK AO1

More Conditions Fewer Conditions

Nowcast | as of 3:17 am CST on March 1, 2015

Areas of light drizzle and freezing drizzle will continue to occur through daybreak across north and central Texas. The freezing line extended from just northwest of Lampasas...Hillsboro and Greenville to Bonham at 3 am. The freezing line shift very slowly northwest after daybreak. Bridges and overpasses will still have patchy icy spots as far southeast as a Bonham to Waxahachie to Lampasas line. More widespread snow/ice will remain on main Road surfaces along and northwest of a Goldthwaite to Gainesville line through midday Sunday. Check Road reports before traveling across the North Texas.

×

10-Day Weather Forecast

Almanac

Astronomía

Mar. 01, 2015 Salida Puesta
Hora real
Crepúsculo civil
Crepúsculo náutico
Crepúsculo astronómico
Luna
Horas de luz
Horas de luz
Tomorrow will be .
, % of the Moon is Illuminated

Extremos de hoy

Máximos del estado Bajos del estado

Community

WunderPhotos

Upload Photos

1,801,359 ¡fotos cargadas!

WunderBlogs® & News

Nearby

Calidad del aire

  Calidad del aire Índice AQ Contaminante
Not available.

Grosos de nieve

Estación Profundido Altura

Actividad de terremotos

Ciudad Distance Mag. Tiempo y dato
Magnitud mínima muestra es 2,5.

Temperaturas de aguas costeras

Lugar Temperatura

Estaciones meteorológicas cercanas